createdAt,value
2022-09-23T00:01:55.758Z,84.22
2022-09-23T00:05:19.030Z,84.08
2022-09-23T00:08:42.387Z,84.43
2022-09-23T00:12:08.665Z,84.41
2022-09-23T00:15:31.594Z,84.41
2022-09-23T00:18:53.689Z,84.37
2022-09-23T00:22:17.396Z,84.27
2022-09-23T00:25:39.452Z,84.58
2022-09-23T00:29:01.252Z,83.74
2022-09-23T00:32:23.164Z,84.11
2022-09-23T00:35:45.295Z,83.85
2022-09-23T00:39:09.864Z,83.88
2022-09-23T00:42:31.753Z,84.36
2022-09-23T00:45:55.115Z,85.19
2022-09-23T00:49:30.249Z,86.24
2022-09-23T00:52:56.937Z,87.02
2022-09-23T00:56:22.651Z,87.23
2022-09-23T00:59:45.748Z,87.83
2022-09-23T01:03:09.684Z,88.12
2022-09-23T01:06:31.921Z,87.63
2022-09-23T01:09:53.441Z,87.93
2022-09-23T01:13:25.310Z,86.68
2022-09-23T01:16:55.320Z,85.88
2022-09-23T01:20:43.889Z,85.59
2022-09-23T01:24:36.501Z,85.96
2022-09-23T01:28:19.145Z,85.44
2022-09-23T01:31:47.728Z,86.02
2022-09-23T01:35:17.264Z,84.89
2022-09-23T01:38:46.336Z,83.92
2022-09-23T01:42:18.290Z,84.07
2022-09-23T01:45:46.196Z,84.79
2022-09-23T01:49:17.716Z,86.21
2022-09-23T01:52:44.901Z,86.85
2022-09-23T01:56:12.052Z,87.17
2022-09-23T01:59:39.601Z,88.56
2022-09-23T02:03:05.879Z,88.64
2022-09-23T02:06:33.348Z,89.00
2022-09-23T02:10:03.507Z,88.33
2022-09-23T02:13:32.802Z,88.19
2022-09-23T02:16:58.420Z,88.33
2022-09-23T02:20:25.930Z,88.10
2022-09-23T02:23:52.270Z,88.02
2022-09-23T02:27:21.437Z,87.50
2022-09-23T02:30:51.025Z,87.42
2022-09-23T02:34:22.197Z,88.19
2022-09-23T02:37:50.340Z,87.85
2022-09-23T02:41:19.249Z,87.86
2022-09-23T02:44:41.402Z,88.25
2022-09-23T02:48:08.067Z,88.17
2022-09-23T02:51:30.289Z,88.02
2022-09-23T02:54:52.628Z,87.51
2022-09-23T02:58:15.940Z,87.54
2022-09-23T03:01:47.968Z,87.48
2022-09-23T03:05:24.000Z,87.40
2022-09-23T03:08:50.656Z,87.21
2022-09-23T03:12:18.629Z,87.04
2022-09-23T03:15:52.620Z,87.30
2022-09-23T03:19:26.409Z,87.03
2022-09-23T03:22:53.017Z,86.58
2022-09-23T03:26:21.145Z,86.89
2022-09-23T03:29:47.571Z,86.83
2022-09-23T03:33:14.702Z,86.57
2022-09-23T03:36:53.877Z,86.92
2022-09-23T03:40:19.640Z,86.38
2022-09-23T03:43:41.876Z,86.56
2022-09-23T03:47:04.581Z,86.07
2022-09-23T03:50:29.047Z,86.22
2022-09-23T03:53:51.671Z,86.15
2022-09-23T03:57:14.193Z,86.50
2022-09-23T04:00:43.484Z,86.32
2022-09-23T04:04:07.887Z,86.63
2022-09-23T04:07:32.121Z,86.16
2022-09-23T04:10:55.294Z,86.22
2022-09-23T04:14:18.764Z,86.42
2022-09-23T04:17:42.641Z,86.37
2022-09-23T04:21:05.707Z,86.80
2022-09-23T04:24:30.510Z,86.25
2022-09-23T04:27:53.364Z,85.68
2022-09-23T04:31:16.178Z,85.52
2022-09-23T04:34:40.108Z,85.78
2022-09-23T04:38:02.970Z,86.14
2022-09-23T04:41:27.150Z,85.65
2022-09-23T04:44:49.907Z,85.85
2022-09-23T04:48:14.199Z,85.62
2022-09-23T04:51:37.362Z,85.65
2022-09-23T04:55:00.529Z,85.73
2022-09-23T04:58:25.845Z,85.96
2022-09-23T05:01:48.915Z,86.66
2022-09-23T05:05:12.009Z,86.85
2022-09-23T05:08:34.521Z,86.83
2022-09-23T05:11:56.968Z,87.27
2022-09-23T05:15:21.671Z,87.70
2022-09-23T05:18:45.749Z,88.11
2022-09-23T05:22:08.513Z,87.95
2022-09-23T05:25:34.046Z,87.84
2022-09-23T05:28:59.814Z,87.79
2022-09-23T05:32:24.866Z,87.59
2022-09-23T05:35:49.670Z,88.01
2022-09-23T05:39:12.422Z,87.99
2022-09-23T05:42:35.595Z,87.80
2022-09-23T05:46:07.999Z,86.87
2022-09-23T05:49:55.222Z,86.46
2022-09-23T05:53:18.778Z,86.51
2022-09-23T05:56:42.653Z,86.59
2022-09-23T06:00:06.835Z,86.92
2022-09-23T06:03:29.387Z,86.63
2022-09-23T06:06:54.199Z,87.27
2022-09-23T06:10:17.156Z,86.50
2022-09-23T06:13:40.835Z,85.94
2022-09-23T06:17:03.484Z,86.24
2022-09-23T06:20:26.131Z,86.28
2022-09-23T06:23:53.959Z,86.41
2022-09-23T06:27:19.029Z,85.89
2022-09-23T06:30:42.906Z,85.36
2022-09-23T06:34:11.655Z,84.18
2022-09-23T06:37:36.004Z,84.16
2022-09-23T06:41:00.795Z,83.94
2022-09-23T06:44:23.755Z,84.00
2022-09-23T06:47:50.394Z,84.27
2022-09-23T06:51:19.703Z,83.97
2022-09-23T06:54:42.916Z,83.08
2022-09-23T06:58:07.672Z,82.11
2022-09-23T07:01:30.648Z,82.89
2022-09-23T07:04:53.799Z,81.57
2022-09-23T07:08:16.971Z,81.38
2022-09-23T07:11:40.226Z,78.91
2022-09-23T07:15:04.323Z,78.13
2022-09-23T07:18:30.994Z,77.85
2022-09-23T07:21:55.865Z,75.64
2022-09-23T07:25:18.826Z,75.16
2022-09-23T07:28:42.195Z,75.78
2022-09-23T07:32:13.567Z,74.21
2022-09-23T07:35:42.456Z,74.48
2022-09-23T07:39:05.826Z,75.12
2022-09-23T07:42:28.985Z,74.65
2022-09-23T07:45:52.840Z,73.88
2022-09-23T07:49:17.779Z,72.83
2022-09-23T07:52:41.867Z,73.82
2022-09-23T07:56:07.520Z,72.50
2022-09-23T07:59:30.238Z,72.56
2022-09-23T08:02:53.528Z,73.08
2022-09-23T08:06:18.208Z,73.69
2022-09-23T08:09:43.051Z,72.84
2022-09-23T08:13:05.760Z,73.11
2022-09-23T08:16:29.126Z,71.46
2022-09-23T08:19:52.201Z,68.75
2022-09-23T08:23:17.921Z,68.47
2022-09-23T08:26:40.877Z,71.03
2022-09-23T08:30:03.641Z,71.49
2022-09-23T08:33:28.230Z,71.83
2022-09-23T08:36:52.837Z,71.12
2022-09-23T08:40:25.080Z,70.56
2022-09-23T08:43:51.447Z,70.21
2022-09-23T08:47:20.250Z,70.01
2022-09-23T08:50:44.226Z,67.40
2022-09-23T08:54:08.630Z,69.91
2022-09-23T08:57:43.255Z,68.51
2022-09-23T09:01:15.271Z,66.94
2022-09-23T09:04:44.849Z,65.72
2022-09-23T09:08:08.420Z,68.07
2022-09-23T09:11:37.930Z,66.65
2022-09-23T09:15:06.624Z,66.38
2022-09-23T09:18:35.360Z,66.08
2022-09-23T09:21:58.487Z,65.77
2022-09-23T09:25:30.858Z,65.25
2022-09-23T09:29:23.890Z,65.08
2022-09-23T09:32:51.198Z,63.79
2022-09-23T09:36:32.277Z,62.81
2022-09-23T09:39:56.677Z,64.53
2022-09-23T09:43:23.929Z,64.00
2022-09-23T09:47:16.896Z,61.56
2022-09-23T09:50:47.744Z,62.43
2022-09-23T09:54:28.021Z,61.31
2022-09-23T09:57:55.833Z,61.86
2022-09-23T10:01:26.037Z,59.58
2022-09-23T10:04:58.739Z,59.61
2022-09-23T10:08:29.687Z,60.21
2022-09-23T10:12:13.431Z,60.05
2022-09-23T10:15:50.630Z,60.24
2022-09-23T10:19:26.027Z,59.39
2022-09-23T10:22:48.939Z,60.07
2022-09-23T10:26:14.356Z,59.78
2022-09-23T10:29:41.026Z,59.76
2022-09-23T10:33:03.960Z,60.30
2022-09-23T10:36:27.451Z,59.97
2022-09-23T10:40:08.254Z,59.70
2022-09-23T10:43:56.882Z,59.55
2022-09-23T10:47:36.232Z,58.34
2022-09-23T10:51:00.206Z,56.04
2022-09-23T10:54:31.771Z,59.50
2022-09-23T10:58:11.224Z,58.82
2022-09-23T11:01:42.549Z,58.45
2022-09-23T11:05:34.006Z,57.43
2022-09-23T11:09:11.518Z,58.85
2022-09-23T11:12:46.061Z,58.89
2022-09-23T11:16:20.825Z,59.19
2022-09-23T11:20:11.504Z,58.49
2022-09-23T11:24:01.727Z,59.11
2022-09-23T11:27:36.750Z,59.39
2022-09-23T11:31:10.533Z,59.72
2022-09-23T11:34:55.098Z,59.40
2022-09-23T11:38:26.373Z,59.61
2022-09-23T11:41:51.181Z,59.82
2022-09-23T11:45:22.029Z,57.89
2022-09-23T11:48:53.075Z,59.30
2022-09-23T11:52:22.181Z,58.87
2022-09-23T11:55:57.574Z,57.93
2022-09-23T11:59:39.227Z,58.07
2022-09-23T12:03:11.107Z,58.35
2022-09-23T12:06:40.420Z,58.79
2022-09-23T12:10:06.861Z,58.73
2022-09-23T12:13:42.090Z,57.02
2022-09-23T12:17:20.215Z,57.01
2022-09-23T12:20:58.238Z,56.68
2022-09-23T12:24:52.746Z,57.53
2022-09-23T12:28:20.099Z,57.87
2022-09-23T12:31:47.425Z,56.82
2022-09-23T12:35:24.250Z,54.58
2022-09-23T12:38:51.918Z,56.32
2022-09-23T12:42:19.793Z,56.71
2022-09-23T12:45:43.027Z,56.45
2022-09-23T12:49:24.048Z,56.56
2022-09-23T12:52:47.305Z,57.13
2022-09-23T12:56:18.058Z,56.91
2022-09-23T13:00:02.213Z,56.33
2022-09-23T13:03:42.270Z,57.70
2022-09-23T13:07:13.419Z,57.79
2022-09-23T13:10:40.271Z,57.50
2022-09-23T13:14:07.556Z,56.82
2022-09-23T13:18:15.249Z,55.88
2022-09-23T13:26:34.267Z,57.00
2022-09-23T13:30:04.684Z,57.17
2022-09-23T13:33:41.057Z,56.35
2022-09-23T13:37:22.894Z,57.80
2022-09-23T13:40:46.967Z,58.83
2022-09-23T13:44:20.970Z,57.98
2022-09-23T13:47:46.487Z,58.63
2022-09-23T13:51:12.317Z,58.64
2022-09-23T13:54:37.127Z,59.56
2022-09-23T13:58:02.943Z,59.67
2022-09-23T14:01:38.038Z,60.20
2022-09-23T14:05:01.093Z,60.25
2022-09-23T14:08:24.624Z,60.24
2022-09-23T14:11:47.890Z,60.27
2022-09-23T14:15:16.131Z,60.59
2022-09-23T14:18:43.443Z,60.58
2022-09-23T14:22:09.242Z,61.05
2022-09-23T14:25:36.330Z,60.67
2022-09-23T14:29:00.103Z,61.87
2022-09-23T14:32:25.523Z,61.87
2022-09-23T14:35:52.884Z,61.93
2022-09-23T14:39:17.284Z,62.44
2022-09-23T14:42:43.110Z,62.63
2022-09-23T14:46:06.519Z,62.62
2022-09-23T14:49:30.054Z,62.79
2022-09-23T14:52:54.754Z,62.24
2022-09-23T14:56:22.843Z,61.66
2022-09-23T14:59:52.959Z,62.00
2022-09-23T15:03:18.652Z,61.24
2022-09-23T15:06:47.085Z,61.28
2022-09-23T15:10:23.963Z,61.66
2022-09-23T15:13:52.968Z,61.47
2022-09-23T15:17:33.023Z,62.32
2022-09-23T15:20:58.198Z,63.14
2022-09-23T15:24:40.042Z,63.72
2022-09-23T15:28:24.093Z,63.74
2022-09-23T15:31:47.027Z,64.55
2022-09-23T15:35:14.327Z,64.93
2022-09-23T15:38:36.974Z,65.07
2022-09-23T15:42:02.087Z,65.85
2022-09-23T15:45:34.933Z,66.16
2022-09-23T15:49:02.153Z,66.39
2022-09-23T15:52:25.094Z,66.67
2022-09-23T15:55:51.024Z,67.12
2022-09-23T15:59:14.167Z,67.53
2022-09-23T16:02:39.038Z,68.06
2022-09-23T16:06:04.795Z,68.51
2022-09-23T16:09:28.085Z,69.05
2022-09-23T16:12:51.870Z,69.31
2022-09-23T16:16:16.704Z,69.39
2022-09-23T16:19:41.227Z,69.51
2022-09-23T16:23:06.686Z,69.76
2022-09-23T16:26:32.303Z,70.11
2022-09-23T16:29:55.373Z,70.54
2022-09-23T16:33:18.017Z,70.51
2022-09-23T16:36:45.182Z,71.15
2022-09-23T16:40:12.069Z,71.56
2022-09-23T16:43:40.112Z,72.12
2022-09-23T16:47:03.192Z,72.06
2022-09-23T16:50:26.546Z,72.43
2022-09-23T16:53:52.186Z,73.17
2022-09-23T16:57:15.025Z,73.56
2022-09-23T17:01:03.313Z,73.56
2022-09-23T17:04:26.144Z,73.92
2022-09-23T17:07:49.097Z,73.04
2022-09-23T17:11:15.027Z,73.00
2022-09-23T17:14:38.395Z,73.33
2022-09-23T17:18:02.067Z,72.95
2022-09-23T17:21:27.082Z,73.25
2022-09-23T17:24:49.733Z,73.33
2022-09-23T17:28:17.402Z,73.76
2022-09-23T17:31:40.410Z,73.07
2022-09-23T17:35:05.160Z,73.65
2022-09-23T17:38:29.425Z,73.05
2022-09-23T17:41:58.976Z,72.86
2022-09-23T17:45:23.557Z,73.04
2022-09-23T17:48:47.350Z,74.00
2022-09-23T17:52:10.309Z,73.90
2022-09-23T17:55:32.962Z,74.07
2022-09-23T17:58:56.024Z,74.54
2022-09-23T18:02:21.184Z,73.95
2022-09-23T18:05:43.678Z,73.76
2022-09-23T18:09:09.271Z,73.94
2022-09-23T18:12:32.056Z,73.84
2022-09-23T18:15:54.766Z,73.90
2022-09-23T18:19:20.336Z,73.91
2022-09-23T18:22:43.393Z,74.22
2022-09-23T18:26:14.656Z,74.37
2022-09-23T18:29:37.606Z,74.54
2022-09-23T18:33:02.117Z,73.99
2022-09-23T18:36:26.805Z,74.04
2022-09-23T18:39:50.391Z,73.85
2022-09-23T18:43:17.286Z,74.01
2022-09-23T18:46:43.220Z,74.20
2022-09-23T18:50:23.943Z,75.17
2022-09-23T18:53:50.588Z,74.66
2022-09-23T18:57:15.189Z,74.94
2022-09-23T19:00:38.723Z,74.59
2022-09-23T19:04:03.741Z,74.42
2022-09-23T19:07:26.727Z,74.74
2022-09-23T19:10:58.088Z,75.50
2022-09-23T19:14:20.632Z,75.09
2022-09-23T19:17:43.705Z,75.18
2022-09-23T19:21:07.994Z,75.12
2022-09-23T19:24:30.748Z,75.70
2022-09-23T19:27:55.645Z,75.84
2022-09-23T19:31:22.680Z,75.81
2022-09-23T19:34:46.691Z,75.67
2022-09-23T19:38:10.158Z,76.11
2022-09-23T19:41:34.045Z,76.31
2022-09-23T19:45:03.655Z,75.68
2022-09-23T19:48:27.029Z,76.33
2022-09-23T19:51:50.419Z,76.45
2022-09-23T19:55:14.071Z,75.85
2022-09-23T19:58:37.141Z,76.16
2022-09-23T20:02:02.185Z,76.13
2022-09-23T20:05:25.237Z,76.39
2022-09-23T20:08:49.241Z,76.34
2022-09-23T20:12:12.564Z,76.83
2022-09-23T20:15:35.727Z,76.77
2022-09-23T20:19:00.453Z,77.06
2022-09-23T20:22:33.067Z,76.68
2022-09-23T20:26:15.169Z,78.04
2022-09-23T20:29:39.013Z,77.65
2022-09-23T20:33:01.752Z,78.24
2022-09-23T20:36:30.141Z,77.98
2022-09-23T20:39:54.247Z,77.85
2022-09-23T20:43:18.626Z,78.58
2022-09-23T20:46:46.930Z,79.08
2022-09-23T20:50:11.818Z,80.24
2022-09-23T20:53:36.721Z,81.95
2022-09-23T20:57:01.008Z,82.90
2022-09-23T21:00:24.078Z,82.96
2022-09-23T21:03:48.769Z,82.37
2022-09-23T21:07:11.835Z,82.50
2022-09-23T21:10:36.129Z,81.90
2022-09-23T21:13:59.086Z,81.75
2022-09-23T21:17:23.262Z,81.39
2022-09-23T21:20:56.257Z,81.71
2022-09-23T21:25:25.324Z,80.67
2022-09-23T21:28:05.443Z,81.02
2022-09-23T21:31:32.635Z,80.92
2022-09-23T21:34:55.265Z,81.17
2022-09-23T21:38:18.209Z,81.23
2022-09-23T21:41:41.469Z,80.64
2022-09-23T21:45:06.688Z,80.43
2022-09-23T21:48:30.473Z,80.68
2022-09-23T21:51:59.471Z,80.75
2022-09-23T21:55:22.219Z,79.97
2022-09-23T21:58:45.266Z,80.36
2022-09-23T22:02:09.673Z,80.98
2022-09-23T22:05:32.636Z,80.22
2022-09-23T22:08:59.397Z,79.77
2022-09-23T22:12:22.341Z,80.05
2022-09-23T22:15:45.175Z,80.32
2022-09-23T22:19:13.274Z,80.02
2022-09-23T22:22:36.278Z,79.29
2022-09-23T22:26:03.213Z,79.87
2022-09-23T22:29:43.565Z,79.78
2022-09-23T22:33:07.650Z,79.75
2022-09-23T22:36:31.835Z,80.42
2022-09-23T22:39:55.280Z,79.71
2022-09-23T22:43:18.985Z,80.01
2022-09-23T22:46:42.179Z,80.49
2022-09-23T22:50:06.248Z,81.14
2022-09-23T22:53:32.163Z,81.87
2022-09-23T22:56:54.721Z,83.51
2022-09-23T23:00:17.983Z,84.47
2022-09-23T23:03:42.206Z,84.44
2022-09-23T23:07:06.468Z,84.21
2022-09-23T23:10:31.482Z,82.95
2022-09-23T23:13:55.292Z,82.59
2022-09-23T23:17:19.236Z,82.90
2022-09-23T23:20:42.300Z,82.57
2022-09-23T23:24:06.334Z,82.43
2022-09-23T23:27:30.780Z,82.13
2022-09-23T23:30:53.944Z,82.67
2022-09-23T23:34:19.165Z,82.55
2022-09-23T23:37:42.224Z,82.62
2022-09-23T23:41:05.078Z,81.82
2022-09-23T23:44:31.121Z,82.07
2022-09-23T23:47:54.071Z,82.36
2022-09-23T23:51:18.273Z,82.25
2022-09-23T23:54:41.116Z,82.66
2022-09-23T23:58:04.281Z,83.16
